createdAt,value
2018-02-04T00:01:34.437Z,14.57
2018-02-04T00:11:36.005Z,13.17
2018-02-04T00:21:38.075Z,15.67
2018-02-04T00:31:40.349Z,14.13
2018-02-04T00:41:41.953Z,17.30
2018-02-04T00:51:43.509Z,14.57
2018-02-04T01:01:45.111Z,15.10
2018-02-04T01:11:46.675Z,14.00
2018-02-04T01:21:48.244Z,14.00
2018-02-04T01:31:49.778Z,13.10
2018-02-04T01:41:51.352Z,14.20
2018-02-04T01:51:52.893Z,14.63
2018-02-04T02:01:55.125Z,17.00
2018-02-04T02:11:56.616Z,15.60
2018-02-04T02:21:58.140Z,13.60
2018-02-04T02:31:59.639Z,14.70
2018-02-04T02:42:01.171Z,15.30
2018-02-04T02:52:02.679Z,15.87
2018-02-04T03:02:04.201Z,14.90
2018-02-04T03:12:06.432Z,15.13
2018-02-04T03:22:07.964Z,17.20
2018-02-04T03:32:09.467Z,14.30
2018-02-04T03:42:11.064Z,14.90
2018-02-04T03:52:12.757Z,16.07
2018-02-04T04:02:14.285Z,16.03
2018-02-04T04:12:15.807Z,15.83
2018-02-04T04:22:18.092Z,18.17
2018-02-04T04:32:19.797Z,16.60
2018-02-04T04:42:21.285Z,16.03
2018-02-04T04:52:22.793Z,17.03
2018-02-04T05:02:24.338Z,17.97
2018-02-04T05:12:26.633Z,17.77
2018-02-04T05:22:28.130Z,16.97
2018-02-04T05:32:29.664Z,18.30
2018-02-04T05:42:31.180Z,17.93
2018-02-04T05:52:32.680Z,17.37
2018-02-04T06:02:34.249Z,18.37
2018-02-04T06:12:36.619Z,17.27
2018-02-04T06:22:38.166Z,18.27
2018-02-04T06:32:40.535Z,18.63
2018-02-04T06:42:42.052Z,17.10
2018-02-04T06:52:43.557Z,18.30
2018-02-04T07:02:45.155Z,17.10
2018-02-04T07:12:46.677Z,18.37
2018-02-04T07:22:48.213Z,13.27
2018-02-04T07:32:49.794Z,12.83
2018-02-04T07:42:51.315Z,12.70
2018-02-04T07:52:52.940Z,13.30
2018-02-04T08:02:54.431Z,15.50
2018-02-04T08:12:55.962Z,15.63
2018-02-04T08:22:57.515Z,14.13
2018-02-04T08:32:59.072Z,12.10
2018-02-04T08:43:01.503Z,13.43
2018-02-04T08:53:03.891Z,12.03
2018-02-04T09:03:05.651Z,13.00
2018-02-04T09:13:07.253Z,14.57
2018-02-04T09:23:08.796Z,13.70
2018-02-04T09:33:10.301Z,13.43
2018-02-04T09:43:11.887Z,13.70
2018-02-04T09:53:13.426Z,10.30
2018-02-04T10:03:15.838Z,13.23
2018-02-04T10:13:18.410Z,32.30
2018-02-04T10:23:20.154Z,13.90
2018-02-04T10:33:21.794Z,11.17
2018-02-04T10:43:23.368Z,10.17
2018-02-04T10:53:25.728Z,12.00
2018-02-04T11:03:27.394Z,11.10
2018-02-04T11:13:29.039Z,9.70
2018-02-04T11:23:30.520Z,9.10
2018-02-04T11:33:32.088Z,9.20
2018-02-04T11:43:33.644Z,9.87
2018-02-04T11:53:35.142Z,10.70
2018-02-04T12:03:36.986Z,11.93
2018-02-04T12:13:38.584Z,10.50
2018-02-04T12:23:40.170Z,13.20
2018-02-04T12:33:41.709Z,13.77
2018-02-04T12:43:43.435Z,10.50
2018-02-04T12:53:44.985Z,9.67
2018-02-04T13:03:46.650Z,11.17
2018-02-04T13:13:48.313Z,10.70
2018-02-04T13:23:50.710Z,10.50
2018-02-04T13:33:52.433Z,9.40
2018-02-04T13:43:54.220Z,9.40
2018-02-04T13:53:55.725Z,9.73
2018-02-04T14:03:57.437Z,11.53
2018-02-04T14:13:59.934Z,8.43
2018-02-04T14:24:01.594Z,9.60
2018-02-04T14:34:03.244Z,9.93
2018-02-04T14:44:04.868Z,9.23
2018-02-04T14:54:07.354Z,9.40
2018-02-04T15:04:08.948Z,8.17
2018-02-04T15:14:10.678Z,8.53
2018-02-04T15:24:12.289Z,8.07
2018-02-04T15:34:14.637Z,9.33
2018-02-04T15:44:16.234Z,8.33
2018-02-04T15:54:17.795Z,9.03
2018-02-04T16:04:19.376Z,8.00
2018-02-04T16:14:21.020Z,8.90
2018-02-04T16:24:22.633Z,8.40
2018-02-04T16:34:24.120Z,10.63
2018-02-04T16:44:25.728Z,9.83
2018-02-04T16:54:27.594Z,9.00
2018-02-04T17:24:55.323Z,8.57
2018-02-04T17:34:57.327Z,8.30
2018-02-04T17:44:58.938Z,9.17
2018-02-04T17:55:00.485Z,9.77
2018-02-04T18:05:02.084Z,9.10
2018-02-04T18:15:03.848Z,8.57
2018-02-04T18:25:05.386Z,8.60
2018-02-04T18:35:06.905Z,9.03
2018-02-04T18:45:08.511Z,11.00
2018-02-04T18:55:10.121Z,7.73
2018-02-04T19:05:11.930Z,8.07
2018-02-04T19:15:13.608Z,9.40
2018-02-04T19:25:15.385Z,8.10
2018-02-04T19:35:17.830Z,7.87
2018-02-04T19:45:20.260Z,8.57
2018-02-04T19:55:21.874Z,10.20
2018-02-04T20:05:23.428Z,9.43
2018-02-04T20:15:25.767Z,9.90
2018-02-04T20:25:27.353Z,9.10
2018-02-04T20:35:29.170Z,10.40
2018-02-04T20:45:30.780Z,8.07
2018-02-04T20:55:32.392Z,8.50
2018-02-04T21:05:34.203Z,8.73
2018-02-04T21:15:36.028Z,8.30
2018-02-04T21:25:37.654Z,8.50
2018-02-04T21:35:39.963Z,9.33
2018-02-04T21:45:41.631Z,9.50
2018-02-04T21:55:43.364Z,9.80
2018-02-04T22:05:45.106Z,8.80
2018-02-04T22:15:46.743Z,9.90
2018-02-04T22:25:48.264Z,11.43
2018-02-04T22:35:49.733Z,10.60
2018-02-04T22:45:51.327Z,9.90
2018-02-04T22:55:52.884Z,10.30
2018-02-04T23:05:55.196Z,10.10
2018-02-04T23:15:57.463Z,9.90
2018-02-04T23:25:59.041Z,10.57
2018-02-04T23:36:00.677Z,10.27
2018-02-04T23:46:02.308Z,10.90
2018-02-04T23:56:04.599Z,11.67
